Fort Jennings, OH (45844)

7:59 AM EST on February 09, 2016 (GMT -0500)
2.3 MI. ESE Delphos | | Change Station
CLOSE
Current Station
Personal Weather Station
Location: Delphos, OH
Elevation: 778 ft
Nearby Weather Stations

Elev 778 ft 40.83 °N, 84.30 °W | Updated 3 minutes ago

Overcast
Overcast
25.0 °F
Feels Like 16 °F
N
7.8
Wind Variable Wind from WSW

Today
High -- | Low -- °F
--% Chance of Precip.
Yesterday
High -- | Low -- °F
Precip. -- in
Pressure 29.67 in
Visibility 8.0 miles
Clouds Overcast 1100 ft
Windchill 16 °F
Dew Point 21 °F
Humidity 85%
Rainfall 0.00 in
Snow Depth Not available.
7:39 AM 6:03 PM
New Moon, 1% visible
METAR KAOH 091253Z AUTO 26014KT 8SM OVC011 M04/M06 A2963 RMK AO2 SLP045 T10391056
Pressure 29.67 in
Visibility 8.0 miles
Clouds Overcast 1100 ft
Windchill 16 °F
Dew Point 21 °F
Humidity 85%
Rainfall 0.00 in
Snow Depth Not available.
7:39 AM 6:03 PM
New Moon, 1% visible
METAR KAOH 091253Z AUTO 26014KT 8SM OVC011 M04/M06 A2963 RMK AO2 SLP045 T10391056

10-Day Weather Forecast

Almanac

Astronomy

Feb. 09, 2016 Rise Set
Actual Time
Civil Twilight
Nautical Twilight
Astronomical Twilight
Moon
Length of Visible Light
Length of Day
Tomorrow will be .
, % of the Moon is Illuminated

Today's Extremes

State Highs State Lows

Community

WunderPhotos

Upload Photos

1,891,589 photos uploaded!

WunderBlog® & News

Nearby

Air Quality

  Air Quality AQ Index Pollutant
Not available.

Snow Depth

Station Depth Elevation

Earthquake Activity

City Distance Mag. Time & Date
Minimum magnitude displayed is 2.5.

Coastal Water Temperatures

Place Temperature

Stations

Nearby Weather Stations

Station Location Temp. Windchill Dew Point Humidity Wind Precip. Elev Updated Type
                   

Watches & Warnings

There are currently no watches in effect.